Time;durP1;ratioP1;P1;durP2;ratioP2;P2;SDS_P1;SDS_P2;PMS_P1;PMS_P2;Temp;Humidity;BMP_temperature;BMP_pressure;BME280_temperature;BME280_humidity;BME280_pressure;Samples;Min_cycle;Max_cycle;Signal;HPM_P1;HPM_P2
2021/09/16 00:01:22;;;;;;;5.47;5.07;;;;;;;15.98;65.25;100487.28;4945744;28;20047;-72
2021/09/16 00:03:48;;;;;;;5.35;5.05;;;;;;;15.94;65.17;100482.69;4960844;28;20031;-74
2021/09/16 00:06:13;;;;;;;5.88;5.50;;;;;;;15.90;65.79;100487.97;4981452;28;20054;-75
2021/09/16 00:08:39;;;;;;;5.30;4.90;;;;;;;15.86;65.53;100487.75;4980315;28;20027;-73
2021/09/16 00:11:04;;;;;;;4.80;4.60;;;;;;;15.79;65.79;100478.22;4966732;28;20034;-72
2021/09/16 00:13:30;;;;;;;6.35;5.85;;;;;;;15.71;65.95;100465.91;4981706;28;20027;-76
2021/09/16 00:15:56;;;;;;;7.30;6.32;;;;;;;15.65;66.50;100478.13;4973170;28;20039;-73
2021/09/16 00:18:22;;;;;;;8.25;7.53;;;;;;;15.63;67.29;100483.13;4984449;28;20112;-74
2021/09/16 00:20:52;;;;;;;9.68;8.70;;;;;;;15.60;67.43;100480.97;4984772;28;20027;-78
2021/09/16 00:23:18;;;;;;;9.10;8.30;;;;;;;15.59;67.74;100479.31;4986180;28;20042;-78
2021/09/16 00:25:44;;;;;;;7.50;6.95;;;;;;;15.56;67.80;100474.41;4968702;28;20062;-79
2021/09/16 00:28:09;;;;;;;8.32;7.57;;;;;;;15.51;68.04;100473.38;4986434;28;20388;-78
2021/09/16 00:30:35;;;;;;;6.47;6.13;;;;;;;15.48;68.00;100468.44;4952660;28;20113;-76
2021/09/16 00:33:01;;;;;;;6.80;6.32;;;;;;;15.42;68.35;100464.13;4981145;28;20030;-77
2021/09/16 00:35:27;;;;;;;5.50;5.00;;;;;;;15.43;67.99;100467.69;4984140;28;20081;-77
2021/09/16 00:37:52;;;;;;;4.97;4.68;;;;;;;15.44;68.08;100481.19;4967287;28;20030;-77
2021/09/16 00:40:18;;;;;;;4.40;4.15;;;;;;;15.44;68.41;100477.63;4966806;28;20687;-76
2021/09/16 00:42:44;;;;;;;5.88;5.47;;;;;;;15.47;68.22;100480.59;4968645;28;20038;-73
2021/09/16 00:45:12;;;;;;;6.80;6.40;;;;;;;15.47;68.86;100477.84;4981663;28;20388;-75
2021/09/16 00:47:46;;;;;;;5.50;5.13;;;;;;;15.52;69.09;100490.72;4983402;28;20061;-74
2021/09/16 00:50:20;;;;;;;5.75;5.38;;;;;;;15.49;68.38;100494.91;4962316;28;20025;-75
2021/09/16 00:52:46;;;;;;;6.30;6.00;;;;;;;15.50;68.55;100493.75;4980265;28;20022;-74
2021/09/16 00:55:12;;;;;;;5.57;5.38;;;;;;;15.49;69.17;100500.41;4984104;28;20048;-74
2021/09/16 00:57:39;;;;;;;7.18;6.60;;;;;;;15.52;69.43;100491.56;4963106;28;20039;-74
2021/09/16 01:00:07;;;;;;;5.95;5.45;;;;;;;15.54;69.68;100500.31;4953815;28;20037;-74
2021/09/16 01:02:33;;;;;;;6.25;5.65;;;;;;;15.53;69.23;100487.66;4981705;28;20092;-71
2021/09/16 01:04:59;;;;;;;6.47;5.95;;;;;;;15.56;69.35;100501.97;4966068;28;20054;-69
2021/09/16 01:07:25;;;;;;;5.38;5.05;;;;;;;15.55;69.88;100503.91;4949822;28;20034;-69
2021/09/16 01:09:50;;;;;;;8.30;7.53;;;;;;;15.54;70.50;100494.81;4962607;28;20095;-70
2021/09/16 01:12:16;;;;;;;8.15;7.10;;;;;;;15.57;71.07;100498.09;4967058;28;20039;-70
2021/09/16 01:14:41;;;;;;;9.73;8.82;;;;;;;15.58;71.60;100502.47;4980247;28;20126;-71
2021/09/16 01:17:07;;;;;;;11.00;10.05;;;;;;;15.57;72.92;100498.09;4964811;28;20093;-70
2021/09/16 01:19:32;;;;;;;18.42;10.68;;;;;;;15.57;73.16;100498.09;4963408;28;20118;-70
2021/09/16 01:21:58;;;;;;;11.10;9.98;;;;;;;15.56;74.07;100501.97;4963874;28;20042;-70
2021/09/16 01:24:24;;;;;;;10.98;9.90;;;;;;;15.56;74.07;100496.47;4961883;28;20037;-69
2021/09/16 01:26:50;;;;;;;10.98;10.05;;;;;;;15.58;74.55;100506.06;4961769;28;20049;-70
2021/09/16 01:29:15;;;;;;;12.75;11.60;;;;;;;15.61;74.67;100501.88;4948894;28;20050;-69
2021/09/16 01:31:47;;;;;;;12.07;10.90;;;;;;;15.64;74.63;100498.56;4964856;28;20170;-69
2021/09/16 01:34:14;;;;;;;11.00;9.90;;;;;;;15.67;75.14;100503.47;4980371;28;20034;-71
2021/09/16 01:36:41;;;;;;;10.73;9.75;;;;;;;15.65;74.82;100500.19;4980276;28;20031;-72
2021/09/16 01:39:09;;;;;;;13.02;10.35;;;;;;;15.70;74.80;100505.63;4956316;28;20541;-72
2021/09/16 01:41:35;;;;;;;14.48;10.32;;;;;;;15.73;74.72;100504.22;4982683;28;20042;-72
2021/09/16 01:44:01;;;;;;;12.07;11.10;;;;;;;15.76;75.48;100501.66;4962386;28;20038;-72
2021/09/16 01:46:27;;;;;;;12.63;9.27;;;;;;;15.79;75.25;100506.63;4947864;28;20106;-73
2021/09/16 01:48:53;;;;;;;10.45;9.63;;;;;;;15.82;74.69;100503.25;4963379;28;20034;-71
2021/09/16 01:51:19;;;;;;;10.02;9.10;;;;;;;15.86;74.81;100501.53;4967866;28;20035;-72
2021/09/16 01:53:44;;;;;;;17.10;11.20;;;;;;;15.86;75.03;100501.53;4950612;28;20085;-72
2021/09/16 01:56:10;;;;;;;13.13;11.23;;;;;;;15.86;74.83;100501.53;4961838;28;20413;-73
2021/09/16 01:58:38;;;;;;;12.30;11.15;;;;;;;15.86;75.03;100496.03;4964773;28;20101;-71
2021/09/16 02:01:04;;;;;;;13.68;12.25;;;;;;;15.87;75.11;100496.84;4981928;28;20030;-72
2021/09/16 02:03:30;;;;;;;12.77;10.45;;;;;;;15.88;75.09;100504.81;4980012;28;20125;-73
2021/09/16 02:05:56;;;;;;;17.88;13.02;;;;;;;15.88;75.57;100504.00;4980830;28;20027;-72
2021/09/16 02:08:22;;;;;;;15.30;12.98;;;;;;;15.87;76.04;100507.88;4977791;28;20093;-71
2021/09/16 02:10:47;;;;;;;19.58;14.65;;;;;;;15.84;76.06;100503.78;4980354;28;20023;-73
2021/09/16 02:13:13;;;;;;;19.63;14.57;;;;;;;15.81;76.53;100509.91;4960220;28;20039;-72
2021/09/16 02:15:38;;;;;;;24.80;14.73;;;;;;;15.83;76.70;100512.38;4980972;28;20027;-72
2021/09/16 02:18:03;;;;;;;18.92;13.88;;;;;;;15.81;77.07;100509.91;4964373;28;20037;-73
2021/09/16 02:20:29;;;;;;;18.02;14.35;;;;;;;15.84;76.70;100513.97;4955202;28;20035;-74
2021/09/16 02:22:54;;;;;;;15.40;12.90;;;;;;;15.83;76.98;100507.66;4977043;28;20034;-73
2021/09/16 02:25:20;;;;;;;14.60;13.13;;;;;;;15.87;77.23;100505.09;4978323;28;20090;-73
2021/09/16 02:27:45;;;;;;;14.30;12.65;;;;;;;15.87;76.92;100499.59;4962423;28;20035;-75
2021/09/16 02:30:12;;;;;;;18.90;12.18;;;;;;;15.86;76.75;100501.53;4966644;28;20079;-74
2021/09/16 02:32:38;;;;;;;12.80;11.48;;;;;;;15.91;77.05;100505.34;4969824;28;20179;-73
2021/09/16 02:35:04;;;;;;;13.98;11.57;;;;;;;15.93;76.92;100503.09;4976624;28;20034;-75
2021/09/16 02:37:29;;;;;;;10.95;9.95;;;;;;;15.94;76.42;100496.47;4992452;28;20290;-73
2021/09/16 02:39:55;;;;;;;8.13;7.53;;;;;;;15.99;76.38;100499.97;4973105;28;20019;-74
2021/09/16 02:42:20;;;;;;;12.82;11.05;;;;;;;16.04;76.33;100508.13;4959029;28;20221;-74
2021/09/16 02:44:46;;;;;;;15.88;12.13;;;;;;;16.10;76.56;100517.16;4963223;28;20038;-74
2021/09/16 02:47:11;;;;;;;15.80;12.35;;;;;;;16.12;76.02;100509.41;4984917;28;20122;-74
2021/09/16 02:49:37;;;;;;;12.38;11.18;;;;;;;16.16;76.25;100504.91;4986735;28;20046;-73
2021/09/16 02:52:05;;;;;;;13.25;11.35;;;;;;;16.19;76.07;100504.34;4966113;28;20031;-74
2021/09/16 02:54:31;;;;;;;12.38;11.07;;;;;;;16.22;75.93;100509.25;4981015;28;20039;-73
2021/09/16 02:56:56;;;;;;;11.77;10.70;;;;;;;16.26;75.93;100511.41;4979838;28;20181;-73
2021/09/16 02:59:22;;;;;;;12.55;11.52;;;;;;;16.29;76.08;100511.59;4980190;28;20038;-74
2021/09/16 03:01:47;;;;;;;9.75;8.88;;;;;;;16.33;75.84;100509.06;4981203;28;20038;-72
2021/09/16 03:04:13;;;;;;;10.00;9.07;;;;;;;16.37;75.82;100512.84;4965257;28;20094;-72
2021/09/16 03:06:38;;;;;;;7.72;7.13;;;;;;;16.40;75.77;100512.25;4984791;28;20049;-72
2021/09/16 03:09:04;;;;;;;7.93;7.43;;;;;;;16.44;75.43;100510.53;4968196;28;20030;-72
2021/09/16 03:11:29;;;;;;;5.75;5.45;;;;;;;16.48;74.88;100510.72;4983616;28;20038;-73
2021/09/16 03:13:55;;;;;;;6.00;5.60;;;;;;;16.51;75.17;100507.34;4966072;28;20035;-71
2021/09/16 03:16:20;;;;;;;7.05;6.65;;;;;;;16.56;74.95;100513.59;4979501;28;20035;-71
2021/09/16 03:18:46;;;;;;;6.15;5.75;;;;;;;16.60;74.90;100504.72;4950054;28;20046;-72
2021/09/16 03:21:11;;;;;;;7.60;6.85;;;;;;;16.64;74.63;100502.97;4966733;28;20050;-72
2021/09/16 03:23:37;;;;;;;7.50;6.95;;;;;;;16.69;74.34;100511.16;4983040;28;20035;-72
2021/09/16 03:26:02;;;;;;;7.53;6.95;;;;;;;16.71;74.31;100503.41;4983449;28;20042;-72
2021/09/16 03:28:30;;;;;;;8.27;7.65;;;;;;;16.69;74.03;100505.63;4982096;28;20035;-74
2021/09/16 03:30:55;;;;;;;8.63;8.02;;;;;;;16.64;74.23;100497.47;4953205;28;20395;-75
2021/09/16 03:33:21;;;;;;;6.65;6.35;;;;;;;16.60;73.93;100504.72;4982992;28;20031;-74
2021/09/16 03:35:46;;;;;;;5.57;5.30;;;;;;;16.54;74.15;100502.06;4969422;28;20152;-73
2021/09/16 03:38:12;;;;;;;4.50;4.22;;;;;;;16.48;73.84;100499.69;4966106;28;20031;-77
2021/09/16 03:40:37;;;;;;;3.70;3.50;;;;;;;16.44;73.89;100507.78;4984526;28;20022;-74
2021/09/16 03:43:03;;;;;;;2.35;2.17;;;;;;;16.36;73.57;100505.69;4978098;28;20464;-74
2021/09/16 03:45:29;;;;;;;2.63;2.53;;;;;;;16.32;73.54;100499.13;4982279;28;20022;-73
2021/09/16 03:47:54;;;;;;;2.38;2.28;;;;;;;16.27;73.43;100499.25;4981301;28;20097;-74
2021/09/16 03:50:19;;;;;;;1.10;1.10;;;;;;;16.21;73.28;100504.03;4963931;28;20046;-74
2021/09/16 03:52:45;;;;;;;1.83;1.73;;;;;;;16.14;73.08;100500.84;4966672;28;20136;-73
2021/09/16 03:55:11;;;;;;;0.75;0.75;;;;;;;16.09;73.31;100493.47;4961647;28;20042;-75
2021/09/16 03:57:39;;;;;;;0.80;0.80;;;;;;;16.00;73.03;100498.00;4981426;28;20086;-75
2021/09/16 04:00:16;;;;;;;0.65;0.65;;;;;;;15.98;72.60;100500.25;4965455;28;20047;-74
2021/09/16 04:02:44;;;;;;;1.15;1.10;;;;;;;15.83;72.57;100488.34;4980731;28;20023;-75
2021/09/16 04:05:10;;;;;;;0.68;0.60;;;;;;;15.81;72.03;100493.38;4932146;29;20027;-75
2021/09/16 04:07:35;;;;;;;0.60;0.60;;;;;;;15.80;72.78;100502.75;4980212;28;20092;-74
2021/09/16 04:10:01;;;;;;;0.93;0.93;;;;;;;15.65;72.07;100494.66;4941914;28;20066;-75
2021/09/16 04:12:26;;;;;;;1.02;1.02;;;;;;;15.62;72.18;100498.03;4979876;28;20038;-73
2021/09/16 04:14:52;;;;;;;1.08;1.08;;;;;;;15.61;72.74;100499.13;4949091;28;20030;-73
2021/09/16 04:17:18;;;;;;;1.10;1.10;;;;;;;15.60;72.37;100494.75;4975236;28;20035;-72
2021/09/16 04:19:43;;;;;;;3.58;3.38;;;;;;;15.65;72.61;100505.69;4982209;28;20049;-73
2021/09/16 04:22:09;;;;;;;7.38;5.38;;;;;;;15.66;72.99;100504.56;4967076;28;20038;-74
2021/09/16 04:24:34;;;;;;;8.00;7.32;;;;;;;15.69;72.92;100496.53;4981969;28;20565;-74
2021/09/16 04:27:00;;;;;;;8.32;7.60;;;;;;;15.71;73.46;100497.06;4967022;28;20030;-73
2021/09/16 04:29:25;;;;;;;11.02;8.93;;;;;;;15.76;73.29;100501.66;4978669;28;20097;-73
2021/09/16 04:31:51;;;;;;;10.48;9.02;;;;;;;15.79;73.84;100512.13;4982353;28;20465;-73
2021/09/16 04:34:16;;;;;;;9.18;8.23;;;;;;;15.77;73.74;100508.00;4965650;28;20031;-73
2021/09/16 04:36:41;;;;;;;6.32;5.93;;;;;;;15.78;73.82;100502.22;4981898;28;20031;-72
2021/09/16 04:39:07;;;;;;;6.72;6.07;;;;;;;15.81;73.64;100501.63;4982793;28;20033;-73
2021/09/16 04:41:34;;;;;;;7.75;7.10;;;;;;;15.82;73.91;100505.19;4977986;28;21421;-72
2021/09/16 04:43:59;;;;;;;9.02;8.43;;;;;;;15.82;74.12;100500.50;4966452;28;20023;-73
2021/09/16 04:46:25;;;;;;;10.50;9.50;;;;;;;15.81;74.54;100498.88;4979281;28;20627;-72
2021/09/16 04:48:51;;;;;;;12.20;9.55;;;;;;;15.81;74.81;100501.63;4966941;28;20484;-73
2021/09/16 04:51:16;;;;;;;8.88;8.15;;;;;;;15.84;74.84;100501.03;4962743;28;20031;-73
2021/09/16 04:53:42;;;;;;;7.53;7.20;;;;;;;15.84;74.54;100503.78;4962177;28;20030;-72
2021/09/16 04:56:07;;;;;;;7.47;7.10;;;;;;;15.88;75.03;100504.00;4971383;28;20049;-75
2021/09/16 04:58:33;;;;;;;8.60;7.72;;;;;;;15.91;75.01;100502.59;4951108;28;20121;-72
2021/09/16 05:00:59;;;;;;;8.48;7.93;;;;;;;15.92;74.82;100498.72;4965549;28;20034;-72
2021/09/16 05:03:24;;;;;;;7.88;7.40;;;;;;;15.88;74.87;100493.78;4979905;28;20035;-73
2021/09/16 05:05:50;;;;;;;8.20;7.68;;;;;;;15.95;75.54;100506.38;4981453;28;20034;-72
2021/09/16 05:08:16;;;;;;;11.60;10.40;;;;;;;15.96;75.45;100513.53;4985147;28;20035;-79
2021/09/16 05:10:42;;;;;;;9.10;8.45;;;;;;;15.98;75.13;100512.09;4985513;28;20035;-80
2021/09/16 05:13:08;;;;;;;9.23;8.35;;;;;;;16.01;75.25;100516.22;4969811;28;20042;-80
2021/09/16 05:15:56;;;;;;;10.07;9.05;;;;;;;16.03;75.17;100522.22;4986829;28;20034;-78
2021/09/16 05:18:22;;;;;;;8.10;7.40;;;;;;;15.99;75.22;100515.69;4970527;28;20045;-72
2021/09/16 05:20:47;;;;;;;6.88;6.22;;;;;;;16.04;75.17;100519.16;4980735;28;20027;-73
2021/09/16 05:23:13;;;;;;;4.57;4.35;;;;;;;16.03;75.09;100513.97;4982813;28;20061;-74
2021/09/16 05:25:39;;;;;;;3.38;3.22;;;;;;;16.07;74.83;100522.47;4981544;28;20026;-72
2021/09/16 05:28:04;;;;;;;13.27;10.43;;;;;;;16.09;74.74;100532.09;4962992;28;20476;-73
2021/09/16 05:30:30;;;;;;;9.23;8.50;;;;;;;16.12;74.57;100536.16;4963060;28;20050;-74
2021/09/16 05:32:55;;;;;;;10.38;8.73;;;;;;;16.12;74.60;100533.41;4979430;28;20023;-72
2021/09/16 05:35:21;;;;;;;9.70;8.95;;;;;;;16.11;74.81;100529.84;4962562;28;20065;-73
2021/09/16 05:37:46;;;;;;;11.75;10.60;;;;;;;16.09;74.77;100529.31;4968804;28;20038;-74
2021/09/16 05:40:13;;;;;;;11.75;10.35;;;;;;;16.08;75.18;100535.97;4961999;28;21213;-72
2021/09/16 05:42:38;;;;;;;14.40;12.52;;;;;;;16.05;74.69;100533.81;4983672;28;20380;-73
2021/09/16 05:45:05;;;;;;;14.93;13.27;;;;;;;16.05;74.71;100542.06;4960761;28;20066;-73
2021/09/16 05:47:31;;;;;;;14.43;12.05;;;;;;;16.00;75.32;100539.38;4969026;28;20027;-72
2021/09/16 05:49:57;;;;;;;12.27;11.07;;;;;;;15.97;75.08;100546.31;4978076;28;20058;-74
2021/09/16 05:52:22;;;;;;;13.00;9.65;;;;;;;15.96;75.04;100544.69;4978443;28;20026;-72
2021/09/16 05:54:48;;;;;;;10.93;9.88;;;;;;;15.96;75.29;100544.69;4964060;28;20039;-72
2021/09/16 05:57:13;;;;;;;11.55;10.40;;;;;;;15.95;75.54;100548.56;4977357;28;20059;-73
2021/09/16 05:59:39;;;;;;;11.05;10.00;;;;;;;15.97;75.16;100557.34;4961996;28;20067;-72
2021/09/16 06:02:04;;;;;;;11.55;10.38;;;;;;;15.97;75.30;100562.06;4965520;28;20026;-72
2021/09/16 06:04:30;;;;;;;12.32;10.23;;;;;;;15.98;74.93;100561.75;4965024;28;20034;-71
2021/09/16 06:06:56;;;;;;;13.88;12.43;;;;;;;15.97;75.49;100556.53;4970725;28;20037;-74
2021/09/16 06:09:22;;;;;;;12.10;10.95;;;;;;;16.00;75.43;100555.94;4977781;28;20165;-72
2021/09/16 06:11:47;;;;;;;14.00;10.68;;;;;;;15.99;75.65;100555.13;4964504;28;20125;-72
2021/09/16 06:14:13;;;;;;;10.70;9.80;;;;;;;16.02;75.69;100567.50;4963423;28;20043;-72
2021/09/16 06:16:38;;;;;;;12.48;11.30;;;;;;;16.01;75.53;100563.09;4975988;28;20023;-73
2021/09/16 06:19:04;;;;;;;13.18;11.80;;;;;;;16.03;75.77;100569.13;4961116;28;20392;-73
2021/09/16 06:21:29;;;;;;;14.75;12.43;;;;;;;16.01;76.01;100560.34;4965599;28;20054;-73
2021/09/16 06:24:06;;;;;;;15.25;13.30;;;;;;;15.99;75.87;100568.06;4978375;28;20098;-73
2021/09/16 06:26:34;;;;;;;20.38;14.65;;;;;;;16.06;76.01;100571.28;4942292;28;20030;-73
2021/09/16 06:28:59;;;;;;;14.90;13.30;;;;;;;16.07;76.46;100563.84;4980109;28;20050;-77
2021/09/16 06:31:25;;;;;;;24.52;14.85;;;;;;;16.10;76.68;100566.81;4957908;28;20027;-72
2021/09/16 06:33:51;;;;;;;15.23;13.52;;;;;;;16.16;76.56;100571.13;4966103;28;20019;-71
2021/09/16 06:36:16;;;;;;;15.18;13.57;;;;;;;16.18;76.28;100568.91;4966686;28;20065;-74
2021/09/16 06:38:42;;;;;;;20.40;15.73;;;;;;;16.23;76.69;100577.06;4962505;28;20387;-72
2021/09/16 06:41:10;;;;;;;20.52;14.90;;;;;;;16.22;77.01;100572.69;4959040;28;20083;-73
2021/09/16 06:43:35;;;;;;;18.20;14.93;;;;;;;16.17;76.60;100556.22;4963804;28;20082;-73
2021/09/16 06:46:01;;;;;;;16.75;13.90;;;;;;;16.15;76.43;100563.97;4931055;28;20035;-75
2021/09/16 06:48:26;;;;;;;13.15;11.85;;;;;;;16.19;76.66;100575.22;4964131;28;20070;-72
2021/09/16 06:50:52;;;;;;;14.85;12.88;;;;;;;16.20;76.39;100583.19;4963769;28;20039;-73
2021/09/16 06:53:20;;;;;;;15.30;13.10;;;;;;;16.18;76.76;100585.44;4943816;28;20031;-73
2021/09/16 06:55:45;;;;;;;13.45;12.02;;;;;;;16.26;76.68;100596.94;4978068;28;20505;-73
2021/09/16 06:58:11;;;;;;;15.05;13.38;;;;;;;16.23;76.75;100587.31;4982654;28;20066;-76
2021/09/16 07:00:36;;;;;;;15.90;12.93;;;;;;;16.23;76.64;100579.84;4977052;28;20019;-75
2021/09/16 07:03:05;;;;;;;13.82;12.43;;;;;;;16.30;76.72;100589.69;4960371;28;20058;-75
2021/09/16 07:05:31;;;;;;;16.15;12.80;;;;;;;16.33;76.60;100589.09;4966204;28;20023;-76
2021/09/16 07:08:20;;;;;;;13.10;11.60;;;;;;;16.46;76.67;100595.78;4982158;28;20062;-76
2021/09/16 07:10:49;;;;;;;17.23;13.02;;;;;;;16.49;76.58;100598.75;4975615;28;20039;-73
2021/09/16 07:13:16;;;;;;;14.73;12.65;;;;;;;16.62;76.29;100607.34;4948139;28;20046;-74
2021/09/16 07:16:08;;;;;;;;;;;;;;;;;;;;;
2021/09/16 07:18:48;;;;;;;13.20;11.38;;;;;;;16.64;76.11;100594.09;4983154;28;20481;-75
2021/09/16 07:21:14;;;;;;;12.75;11.05;;;;;;;16.81;75.54;100616.44;4985116;28;20035;-76
2021/09/16 07:23:39;;;;;;;12.98;11.68;;;;;;;16.84;75.75;100610.28;4984943;28;20057;-75
2021/09/16 07:26:08;;;;;;;13.07;11.77;;;;;;;16.92;75.14;100620.69;4981757;28;20579;-74
2021/09/16 07:28:36;;;;;;;14.23;11.75;;;;;;;16.90;75.06;100606.34;4967046;28;20503;-74
2021/09/16 07:31:02;;;;;;;10.18;9.18;;;;;;;17.02;75.14;100619.66;4983382;28;20450;-74
2021/09/16 07:33:28;;;;;;;7.50;7.03;;;;;;;17.17;74.75;100615.81;4969803;28;20023;-74
2021/09/16 07:35:56;;;;;;;6.70;6.22;;;;;;;17.31;74.59;100604.75;4984902;28;20034;-74
2021/09/16 07:38:22;;;;;;;8.75;8.15;;;;;;;17.50;74.21;100612.94;4948236;28;20026;-75
2021/09/16 07:40:47;;;;;;;8.13;7.53;;;;;;;17.59;73.91;100619.34;4982666;28;20102;-75
2021/09/16 07:43:13;;;;;;;7.38;6.88;;;;;;;17.67;73.40;100623.38;4964336;28;20050;-74
2021/09/16 07:45:39;;;;;;;11.82;7.95;;;;;;;17.82;73.29;100613.91;4970030;28;20034;-75
2021/09/16 07:48:04;;;;;;;8.02;7.43;;;;;;;18.00;72.71;100625.97;4968835;28;20110;-74
2021/09/16 07:50:50;;;;;;;;;;;;;;;;;;;;;
2021/09/16 07:53:18;;;;;;;8.30;7.55;;;;;;;18.46;71.97;100627.69;4972325;28;20442;-76
2021/09/16 07:55:48;;;;;;;9.82;8.95;;;;;;;18.59;71.02;100625.97;4947056;28;20043;-75
2021/09/16 07:58:13;;;;;;;7.25;6.90;;;;;;;18.66;70.96;100626.34;4968515;28;20130;-75
2021/09/16 08:00:41;;;;;;;7.03;6.53;;;;;;;18.72;70.61;100617.91;4969187;28;20033;-75
2021/09/16 08:03:07;;;;;;;8.45;7.78;;;;;;;18.89;70.23;100629.13;4957711;28;20031;-75
2021/09/16 08:05:34;;;;;;;9.85;9.02;;;;;;;18.88;68.81;100621.97;4954430;28;20093;-74
2021/09/16 08:08:07;;;;;;;8.70;8.00;;;;;;;18.88;68.65;100616.41;4953808;28;20041;-75
2021/09/16 08:10:33;;;;;;;8.05;7.47;;;;;;;18.93;68.73;100610.72;4984560;28;20089;-75
2021/09/16 08:13:01;;;;;;;7.68;7.15;;;;;;;19.09;68.14;100626.97;4964225;28;20026;-75
2021/09/16 08:15:29;;;;;;;6.47;6.10;;;;;;;19.10;67.94;100625.81;4963532;28;20041;-75
2021/09/16 08:17:55;;;;;;;7.50;7.00;;;;;;;19.15;67.90;100631.22;4965333;28;20057;-75
2021/09/16 08:20:20;;;;;;;8.68;7.88;;;;;;;19.11;67.58;100622.72;4966352;28;20034;-74
2021/09/16 08:22:46;;;;;;;8.50;7.72;;;;;;;19.14;67.36;100635.97;4936194;28;20498;-74
2021/09/16 08:25:15;;;;;;;5.95;5.55;;;;;;;19.09;66.88;100621.41;4965214;28;20038;-74
2021/09/16 08:27:41;;;;;;;5.38;4.75;;;;;;;19.15;67.36;100622.91;4983534;28;20026;-74
2021/09/16 08:30:18;;;;;;;5.10;4.80;;;;;;;19.26;66.94;100626.19;4964119;28;20030;-74
2021/09/16 08:32:44;;;;;;;7.38;6.75;;;;;;;19.18;66.12;100616.72;4969908;28;20065;-74
2021/09/16 08:35:10;;;;;;;6.15;5.70;;;;;;;19.13;66.58;100617.69;4967250;28;20054;-75
2021/09/16 08:37:36;;;;;;;6.28;5.97;;;;;;;19.19;66.52;100612.81;4959134;28;20058;-75
2021/09/16 08:40:09;;;;;;;6.78;4.68;;;;;;;19.25;67.10;100625.41;4967049;28;20026;-75
2021/09/16 08:42:43;;;;;;;5.10;4.90;;;;;;;19.42;66.89;100626.59;4980350;28;20022;-74
2021/09/16 08:45:14;;;;;;;3.10;2.90;;;;;;;19.60;66.25;100625.50;4982482;28;20041;-75
2021/09/16 08:47:40;;;;;;;5.30;4.75;;;;;;;19.83;65.88;100628.19;4977235;28;20028;-75
2021/09/16 08:50:14;;;;;;;4.57;4.38;;;;;;;19.92;65.40;100634.59;4964732;28;20026;-74
2021/09/16 08:52:42;;;;;;;3.47;3.38;;;;;;;20.11;64.84;100641.81;4982257;28;20346;-74
2021/09/16 08:55:12;;;;;;;2.75;2.65;;;;;;;20.30;64.98;100633.97;4967030;28;20026;-75
2021/09/16 08:58:02;;;;;;;4.45;4.18;;;;;;;20.48;63.44;100631.16;4977797;28;20039;-74
2021/09/16 09:00:32;;;;;;;2.88;2.78;;;;;;;20.56;63.39;100633.94;4982863;28;20023;-76
2021/09/16 09:02:58;;;;;;;1.50;1.50;;;;;;;20.82;63.73;100640.63;4963667;28;20042;-75
2021/09/16 09:05:27;;;;;;;1.30;1.30;;;;;;;21.12;63.26;100651.84;4967411;28;20031;-75
2021/09/16 09:07:54;;;;;;;1.98;1.90;;;;;;;21.33;62.69;100649.13;4962464;28;20027;-74
2021/09/16 09:10:35;;;;;;;1.90;1.80;;;;;;;21.55;62.04;100653.63;4984051;28;20024;-75
2021/09/16 09:13:01;;;;;;;4.18;3.97;;;;;;;21.60;60.67;100664.59;4972081;28;20401;-75
2021/09/16 09:15:30;;;;;;;3.40;3.20;;;;;;;21.62;60.66;100656.72;4976291;28;20109;-75
2021/09/16 09:18:07;;;;;;;2.03;1.92;;;;;;;21.89;60.66;100662.94;4967717;28;20552;-74
2021/09/16 09:20:34;;;;;;;2.75;2.65;;;;;;;21.90;59.66;100662.63;4966268;28;20031;-75
2021/09/16 09:23:20;;;;;;;2.75;2.60;;;;;;;22.07;59.42;100666.44;4982794;28;20042;-75
2021/09/16 09:25:51;;;;;;;2.60;2.40;;;;;;;22.34;59.40;100676.28;4958334;28;20026;-73
2021/09/16 09:28:49;;;;;;;3.13;2.92;;;;;;;22.98;58.86;100674.19;4967078;28;20031;-74
2021/09/16 09:31:18;;;;;;;4.13;3.92;;;;;;;23.45;55.33;100665.47;4972413;28;20566;-74
2021/09/16 09:33:43;;;;;;;1.83;1.73;;;;;;;24.11;55.90;100671.13;4968282;28;20065;-74
2021/09/16 09:36:25;;;;;;;2.58;2.47;;;;;;;24.46;52.16;100665.00;4968252;28;20034;-74
2021/09/16 09:39:01;;;;;;;2.40;2.30;;;;;;;24.71;52.63;100665.75;4965318;28;20145;-77
2021/09/16 09:41:34;;;;;;;1.58;1.48;;;;;;;25.68;52.86;100667.47;4983809;28;20027;-75
2021/09/16 09:44:14;;;;;;;2.25;1.77;;;;;;;27.21;50.06;100657.06;4981281;28;20048;-76
2021/09/16 09:46:52;;;;;;;1.50;1.50;;;;;;;28.51;46.37;100676.69;4966819;28;20031;-75
2021/09/16 09:49:25;;;;;;;1.45;1.35;;;;;;;28.82;44.98;100679.50;4983163;28;20058;-75
2021/09/16 09:51:56;;;;;;;0.90;0.90;;;;;;;29.84;45.14;100671.59;4985566;28;20027;-75
2021/09/16 09:54:29;;;;;;;0.40;0.40;;;;;;;31.14;44.14;100674.97;4981225;28;20042;-75
2021/09/16 09:57:05;;;;;;;2.78;1.00;;;;;;;32.23;39.09;100684.19;4968537;28;20043;-75
2021/09/16 09:59:51;;;;;;;0.60;0.60;;;;;;;32.46;37.14;100681.69;4970836;28;20027;-75
2021/09/16 10:02:18;;;;;;;0.60;0.60;;;;;;;32.09;37.39;100680.16;4955903;28;20043;-74
2021/09/16 10:04:56;;;;;;;5.18;0.98;;;;;;;31.20;35.78;100669.72;4966810;28;20036;-74
2021/09/16 10:07:40;;;;;;;0.98;0.98;;;;;;;30.97;37.13;100668.88;4981775;28;20023;-76
2021/09/16 10:10:11;;;;;;;0.98;0.98;;;;;;;31.82;38.25;100660.06;4967600;28;20054;-75
2021/09/16 10:12:37;;;;;;;0.70;0.70;;;;;;;32.92;37.48;100667.72;4981337;28;20065;-74
2021/09/16 10:15:31;;;;;;;0.40;0.40;;;;;;;33.99;36.28;100656.72;4967038;28;20035;-74
2021/09/16 10:18:02;;;;;;;0.85;0.85;;;;;;;34.90;31.75;100666.53;4977356;28;20053;-76
2021/09/16 10:20:28;;;;;;;1.15;0.22;;;;;;;35.36;32.23;100663.41;4961091;28;20023;-74
2021/09/16 10:22:59;;;;;;;0.77;0.77;;;;;;;36.08;30.22;100673.50;4983202;28;20037;-74
2021/09/16 10:25:30;;;;;;;0.30;0.20;;;;;;;36.62;30.47;100666.69;4955839;28;20095;-75
2021/09/16 10:28:05;;;;;;;0.45;0.45;;;;;;;37.22;29.18;100675.09;4983024;28;20035;-74
2021/09/16 10:30:36;;;;;;;0.30;0.30;;;;;;;37.65;28.76;100662.63;4971773;28;20054;-75
2021/09/16 10:33:04;;;;;;;1.00;0.50;;;;;;;38.25;28.03;100664.28;4975390;28;20069;-75
2021/09/16 10:35:32;;;;;;;0.85;0.60;;;;;;;38.52;25.62;100665.91;4976718;28;20030;-75
2021/09/16 10:38:16;;;;;;;0.70;0.50;;;;;;;39.00;25.70;100661.16;4979043;28;21350;-74
2021/09/16 10:40:42;;;;;;;0.52;0.52;;;;;;;39.49;25.30;100645.66;4959455;28;20038;-74
2021/09/16 10:43:07;;;;;;;0.30;0.30;;;;;;;39.88;23.43;100659.84;4967775;28;20026;-74
2021/09/16 10:45:37;;;;;;;0.10;0.10;;;;;;;40.52;24.91;100661.59;4968645;28;20541;-74
2021/09/16 10:48:15;;;;;;;0.25;0.17;;;;;;;41.36;23.06;100654.94;4963539;28;20035;-74
2021/09/16 10:51:02;;;;;;;0.30;0.30;;;;;;;41.99;22.35;100648.91;4981974;28;20059;-75
2021/09/16 10:53:40;;;;;;;0.40;0.40;;;;;;;42.32;21.86;100656.84;4966935;28;20029;-75
2021/09/16 10:56:33;;;;;;;0.20;0.20;;;;;;;42.53;21.47;100650.06;4988292;28;20027;-74
2021/09/16 10:58:59;;;;;;;0.35;0.35;;;;;;;42.72;18.77;100653.69;4971112;28;20035;-75
2021/09/16 11:01:52;;;;;;;0.52;0.32;;;;;;;41.03;18.71;100654.66;4954195;28;20381;-75
2021/09/16 11:04:18;;;;;;;0.30;0.30;;;;;;;38.70;20.30;100643.34;4968231;28;20058;-74
2021/09/16 11:06:45;;;;;;;0.30;0.30;;;;;;;36.77;21.86;100638.72;4971926;28;20035;-75
2021/09/16 11:09:12;;;;;;;0.55;0.55;;;;;;;35.14;23.25;100636.13;4947572;28;20051;-74
2021/09/16 11:11:58;;;;;;;1.95;1.00;;;;;;;33.67;24.98;100638.78;4976230;28;20022;-74
2021/09/16 11:14:31;;;;;;;0.50;0.50;;;;;;;32.43;26.79;100637.22;4981187;28;20047;-74
2021/09/16 11:17:09;;;;;;;0.40;0.40;;;;;;;32.60;27.72;100629.06;4984896;28;20675;-75
2021/09/16 11:19:45;;;;;;;0.50;0.50;;;;;;;33.53;27.80;100627.59;4979994;28;20064;-75
2021/09/16 11:22:13;;;;;;;0.52;0.40;;;;;;;35.16;27.13;100638.53;4980406;28;20018;-73
2021/09/16 11:24:41;;;;;;;0.20;0.20;;;;;;;36.86;26.36;100644.63;4984537;28;20035;-73
2021/09/16 11:27:09;;;;;;;0.60;0.60;;;;;;;38.48;23.33;100636.66;4979967;28;20035;-73